createdAt,value
2022-11-28T00:00:33.138Z,8.98
2022-11-28T00:03:18.660Z,10.23
2022-11-28T00:06:05.725Z,11.77
2022-11-28T00:08:51.451Z,11.88
2022-11-28T00:11:39.562Z,12.70
2022-11-28T00:14:25.219Z,10.68
2022-11-28T00:17:10.862Z,10.20
2022-11-28T00:19:56.608Z,9.70
2022-11-28T00:22:42.296Z,10.18
2022-11-28T00:25:27.844Z,9.43
2022-11-28T00:28:13.365Z,9.20
2022-11-28T00:30:58.963Z,11.70
2022-11-28T00:33:44.366Z,9.63
2022-11-28T00:36:30.520Z,8.88
2022-11-28T00:39:17.385Z,8.43
2022-11-28T00:42:03.096Z,8.93
2022-11-28T00:44:49.164Z,9.63
2022-11-28T00:47:34.738Z,8.60
2022-11-28T00:50:20.386Z,9.05
2022-11-28T00:53:05.737Z,10.25
2022-11-28T00:55:51.546Z,10.10
2022-11-28T00:58:37.794Z,10.00
2022-11-28T01:01:23.606Z,10.85
2022-11-28T01:04:11.589Z,8.40
2022-11-28T01:06:57.804Z,8.73
2022-11-28T01:09:43.311Z,7.90
2022-11-28T01:12:28.758Z,8.60
2022-11-28T01:15:14.133Z,8.70
2022-11-28T01:17:59.871Z,8.38
2022-11-28T01:20:45.364Z,9.27
2022-11-28T01:23:30.718Z,11.20
2022-11-28T01:26:22.979Z,10.57
2022-11-28T01:29:09.676Z,11.27
2022-11-28T01:31:54.915Z,10.77
2022-11-28T01:34:40.558Z,10.30
2022-11-28T01:37:26.116Z,9.65
2022-11-28T01:40:12.343Z,8.98
2022-11-28T01:42:57.977Z,8.77
2022-11-28T01:45:43.552Z,8.30
2022-11-28T01:48:41.728Z,8.63
2022-11-28T01:51:27.923Z,7.47
2022-11-28T01:54:15.116Z,7.28
2022-11-28T01:57:04.500Z,8.50
2022-11-28T02:00:02.678Z,8.88
2022-11-28T02:03:06.722Z,7.65
2022-11-28T02:05:53.159Z,7.57
2022-11-28T02:08:38.760Z,8.13
2022-11-28T02:11:59.283Z,7.25
2022-11-28T02:15:00.120Z,7.07
2022-11-28T02:18:02.976Z,7.53
2022-11-28T02:21:03.204Z,7.10
2022-11-28T02:24:01.825Z,7.32
2022-11-28T02:27:12.266Z,8.32
2022-11-28T02:30:16.258Z,9.48
2022-11-28T02:33:28.132Z,7.70
2022-11-28T02:36:20.952Z,6.97
2022-11-28T02:39:29.663Z,7.97
2022-11-28T02:42:20.245Z,8.20
2022-11-28T02:45:29.013Z,8.27
2022-11-28T02:48:22.812Z,8.95
2022-11-28T02:51:24.421Z,8.10
2022-11-28T02:54:12.971Z,7.75
2022-11-28T02:56:58.915Z,8.70
2022-11-28T02:59:50.297Z,8.85
2022-11-28T03:02:36.145Z,8.38
2022-11-28T03:05:28.408Z,8.07
2022-11-28T03:11:55.940Z,7.28
2022-11-28T03:14:58.567Z,8.77
2022-11-28T03:18:11.631Z,9.35
2022-11-28T03:21:02.175Z,10.07
2022-11-28T03:24:18.704Z,11.40
2022-11-28T03:27:16.263Z,10.65
2022-11-28T03:30:11.715Z,10.25
2022-11-28T03:33:00.785Z,11.80
2022-11-28T03:35:50.582Z,10.05
2022-11-28T03:38:44.419Z,8.57
2022-11-28T03:41:35.702Z,8.68
2022-11-28T03:44:30.738Z,7.43
2022-11-28T03:47:16.474Z,7.00
2022-11-28T03:50:08.526Z,7.47
2022-11-28T03:53:01.557Z,5.88
2022-11-28T03:55:55.187Z,6.90
2022-11-28T03:58:49.813Z,7.20
2022-11-28T04:01:53.487Z,6.72
2022-11-28T04:04:53.817Z,6.05
2022-11-28T04:08:25.972Z,7.03
2022-11-28T04:11:39.549Z,6.83
2022-11-28T04:14:46.137Z,7.85
2022-11-28T04:17:37.967Z,7.30
2022-11-28T04:20:32.927Z,7.13
2022-11-28T04:23:21.396Z,6.95
2022-11-28T04:26:13.654Z,7.13
2022-11-28T04:31:48.333Z,5.93
2022-11-28T04:34:36.304Z,7.90
2022-11-28T04:37:24.539Z,6.65
2022-11-28T04:40:11.909Z,7.32
2022-11-28T04:43:10.724Z,6.90
2022-11-28T04:46:04.124Z,7.05
2022-11-28T04:48:49.580Z,7.97
2022-11-28T04:52:05.910Z,6.95
2022-11-28T04:54:54.586Z,7.57
2022-11-28T04:57:44.926Z,7.80
2022-11-28T05:00:34.524Z,8.18
2022-11-28T05:03:20.941Z,8.00
2022-11-28T05:06:08.703Z,8.18
2022-11-28T05:08:54.149Z,8.40
2022-11-28T05:11:39.949Z,9.15
2022-11-28T05:14:25.978Z,8.82
2022-11-28T05:17:13.409Z,8.30
2022-11-28T05:19:59.581Z,9.18
2022-11-28T05:22:45.425Z,8.63
2022-11-28T05:25:30.801Z,7.50
2022-11-28T05:28:16.197Z,7.10
2022-11-28T05:31:02.731Z,7.45
2022-11-28T05:33:48.364Z,8.48
2022-11-28T05:36:33.759Z,7.28
2022-11-28T05:39:19.303Z,9.18
2022-11-28T05:42:05.878Z,9.68
2022-11-28T05:44:51.825Z,8.30
2022-11-28T05:47:37.372Z,8.10
2022-11-28T05:50:22.727Z,8.48
2022-11-28T05:53:09.193Z,7.63
2022-11-28T05:55:54.634Z,7.93
2022-11-28T05:58:40.499Z,9.20
2022-11-28T06:01:29.832Z,7.75
2022-11-28T06:04:15.569Z,9.65
2022-11-28T06:07:01.307Z,7.68
2022-11-28T06:09:46.489Z,9.23
2022-11-28T06:12:31.902Z,8.02
2022-11-28T06:15:17.337Z,7.93
2022-11-28T06:18:02.733Z,8.60
2022-11-28T06:20:48.027Z,8.10
2022-11-28T06:23:34.008Z,7.47
2022-11-28T06:26:22.650Z,7.13
2022-11-28T06:29:08.570Z,7.38
2022-11-28T06:31:54.069Z,7.85
2022-11-28T06:34:39.377Z,8.50
2022-11-28T06:37:24.865Z,8.43
2022-11-28T06:40:10.382Z,11.90
2022-11-28T06:42:55.970Z,12.30
2022-11-28T06:45:41.290Z,13.25
2022-11-28T06:48:27.209Z,18.63
2022-11-28T06:51:13.658Z,18.60
2022-11-28T06:53:58.765Z,21.10
2022-11-28T06:56:44.238Z,18.00
2022-11-28T06:59:29.579Z,9.90
2022-11-28T07:02:15.168Z,11.07
2022-11-28T07:05:00.705Z,9.90
2022-11-28T07:07:54.301Z,10.43
2022-11-28T07:10:40.029Z,11.40
2022-11-28T07:13:25.570Z,11.65
2022-11-28T07:16:15.672Z,11.57
2022-11-28T07:19:01.404Z,10.70
2022-11-28T07:21:47.055Z,10.63
2022-11-28T07:24:32.870Z,13.38
2022-11-28T07:27:18.921Z,10.27
2022-11-28T07:30:05.277Z,12.10
2022-11-28T07:32:50.667Z,10.27
2022-11-28T07:35:36.011Z,9.27
2022-11-28T07:38:21.528Z,9.63
2022-11-28T07:41:09.666Z,8.13
2022-11-28T07:44:00.468Z,7.70
2022-11-28T07:46:47.194Z,6.93
2022-11-28T07:49:33.356Z,7.68
2022-11-28T07:52:19.018Z,9.48
2022-11-28T07:55:05.456Z,9.25
2022-11-28T07:57:51.063Z,8.70
2022-11-28T08:00:36.373Z,6.72
2022-11-28T08:03:21.996Z,5.93
2022-11-28T08:06:08.309Z,6.35
2022-11-28T08:08:55.183Z,6.45
2022-11-28T08:11:41.288Z,6.13
2022-11-28T08:14:26.696Z,7.82
2022-11-28T08:17:12.451Z,6.25
2022-11-28T08:19:58.004Z,8.18
2022-11-28T08:22:44.038Z,10.50
2022-11-28T08:25:29.558Z,8.93
2022-11-28T08:28:15.057Z,6.47
2022-11-28T08:31:09.363Z,10.30
2022-11-28T08:33:56.925Z,11.43
2022-11-28T08:36:43.518Z,7.80
2022-11-28T08:39:29.087Z,8.23
2022-11-28T08:42:14.596Z,6.88
2022-11-28T08:45:00.044Z,6.05
2022-11-28T08:47:45.554Z,6.97
2022-11-28T08:50:31.073Z,7.18
2022-11-28T08:53:18.474Z,6.65
2022-11-28T08:56:04.591Z,7.13
2022-11-28T09:00:12.482Z,6.43
2022-11-28T09:03:23.349Z,6.35
2022-11-28T09:06:13.851Z,8.00
2022-11-28T09:09:04.619Z,7.35
2022-11-28T09:11:50.031Z,7.05
2022-11-28T09:14:35.549Z,9.00
2022-11-28T09:17:21.097Z,8.55
2022-11-28T09:20:07.681Z,8.30
2022-11-28T09:22:52.874Z,9.70
2022-11-28T09:25:39.525Z,9.93
2022-11-28T09:28:28.760Z,9.63
2022-11-28T09:31:16.373Z,10.73
2022-11-28T09:34:04.086Z,9.93
2022-11-28T09:36:50.168Z,12.27
2022-11-28T09:39:50.308Z,15.23
2022-11-28T09:42:44.527Z,13.05
2022-11-28T09:45:33.180Z,13.35
2022-11-28T09:48:28.256Z,21.85
2022-11-28T09:51:34.633Z,16.65
2022-11-28T09:54:29.191Z,22.13
2022-11-28T09:57:48.592Z,15.65
2022-11-28T10:00:42.390Z,13.55
2022-11-28T10:03:58.626Z,10.38
2022-11-28T10:06:53.072Z,9.25
2022-11-28T10:10:03.413Z,9.23
2022-11-28T10:13:10.460Z,8.55
2022-11-28T10:16:05.179Z,10.80
2022-11-28T10:18:56.391Z,12.85
2022-11-28T10:21:47.850Z,15.73
2022-11-28T10:24:50.223Z,12.43
2022-11-28T10:30:23.480Z,9.15
2022-11-28T10:33:19.514Z,11.40
2022-11-28T10:36:06.337Z,10.55
2022-11-28T10:38:52.037Z,9.18
2022-11-28T10:41:43.869Z,9.93
2022-11-28T10:44:39.721Z,10.00
2022-11-28T10:47:28.747Z,11.95
2022-11-28T10:50:43.696Z,10.55
2022-11-28T10:53:35.637Z,10.40
2022-11-28T10:56:48.616Z,10.38
2022-11-28T11:00:30.897Z,13.77
2022-11-28T11:03:30.627Z,12.32
2022-11-28T11:06:19.150Z,13.05
2022-11-28T11:09:04.932Z,11.10
2022-11-28T11:11:58.301Z,11.13
2022-11-28T11:14:44.832Z,11.27
2022-11-28T11:17:37.830Z,12.27
2022-11-28T11:20:23.299Z,11.52
2022-11-28T11:23:23.010Z,9.80
2022-11-28T11:26:33.411Z,10.95
2022-11-28T11:29:30.541Z,11.10
2022-11-28T11:32:23.850Z,10.82
2022-11-28T11:35:17.845Z,11.70
2022-11-28T11:38:22.006Z,10.27
2022-11-28T11:41:29.051Z,10.52
2022-11-28T11:44:15.009Z,11.77
2022-11-28T11:47:06.130Z,11.98
2022-11-28T11:50:03.954Z,10.98
2022-11-28T11:53:13.903Z,9.85
2022-11-28T11:56:03.156Z,11.30
2022-11-28T11:58:53.358Z,12.82
2022-11-28T12:01:40.507Z,10.95
2022-11-28T12:04:52.513Z,11.35
2022-11-28T12:07:52.937Z,11.43
2022-11-28T12:11:16.765Z,14.18
2022-11-28T12:14:17.784Z,13.98
2022-11-28T12:17:48.443Z,12.07
2022-11-28T12:20:44.243Z,11.48
2022-11-28T12:23:40.580Z,11.52
2022-11-28T12:26:51.723Z,10.57
2022-11-28T12:30:02.145Z,10.50
2022-11-28T12:33:12.836Z,9.85
2022-11-28T12:36:13.089Z,9.27
2022-11-28T12:39:01.237Z,8.98
2022-11-28T12:42:15.429Z,9.50
2022-11-28T12:45:33.185Z,8.32
2022-11-28T12:48:34.202Z,9.48
2022-11-28T12:51:51.405Z,9.25
2022-11-28T12:54:50.527Z,9.93
2022-11-28T12:57:53.497Z,10.02
2022-11-28T13:01:06.771Z,9.73
2022-11-28T13:04:21.123Z,10.32
2022-11-28T13:07:37.066Z,9.20
2022-11-28T13:10:39.346Z,8.68
2022-11-28T13:13:34.863Z,9.10
2022-11-28T13:16:50.536Z,9.30
2022-11-28T13:19:55.080Z,8.27
2022-11-28T13:23:02.094Z,9.23
2022-11-28T13:25:54.597Z,6.93
2022-11-28T13:29:01.659Z,7.68
2022-11-28T13:32:29.174Z,7.03
2022-11-28T13:35:17.694Z,7.15
2022-11-28T13:45:03.164Z,9.30
2022-11-28T13:47:48.728Z,16.50
2022-11-28T13:50:37.138Z,15.95
2022-11-28T13:53:24.957Z,12.48
2022-11-28T13:56:11.074Z,12.27
2022-11-28T13:59:01.190Z,10.93
2022-11-28T14:02:00.382Z,10.07
2022-11-28T14:04:48.199Z,9.82
2022-11-28T14:07:35.047Z,9.48
2022-11-28T14:10:39.747Z,11.20
2022-11-28T14:13:32.670Z,10.55
2022-11-28T14:16:40.054Z,14.70
2022-11-28T14:19:46.745Z,12.98
2022-11-28T14:22:48.098Z,10.20
2022-11-28T14:25:41.231Z,9.32
2022-11-28T14:28:36.908Z,8.95
2022-11-28T14:31:31.918Z,9.88
2022-11-28T14:34:38.699Z,9.15
2022-11-28T14:37:30.049Z,10.00
2022-11-28T14:40:53.020Z,9.23
2022-11-28T14:46:32.809Z,8.85
2022-11-28T14:49:20.722Z,9.25
2022-11-28T14:52:37.851Z,10.38
2022-11-28T14:55:25.994Z,11.60
2022-11-28T14:58:24.514Z,11.25
2022-11-28T15:01:19.223Z,11.23
2022-11-28T15:04:15.102Z,11.25
2022-11-28T15:07:03.291Z,11.32
2022-11-28T15:10:04.072Z,11.35
2022-11-28T15:13:18.159Z,11.10
2022-11-28T15:16:10.276Z,10.30
2022-11-28T15:18:59.676Z,10.65
2022-11-28T15:21:48.765Z,12.00
2022-11-28T15:24:38.458Z,13.35
2022-11-28T15:27:26.796Z,12.70
2022-11-28T15:30:26.643Z,12.00
2022-11-28T15:33:14.170Z,12.32
2022-11-28T15:36:10.841Z,11.63
2022-11-28T15:38:57.580Z,11.52
2022-11-28T15:46:34.376Z,12.03
2022-11-28T15:49:31.765Z,11.55
2022-11-28T15:52:21.400Z,13.35
2022-11-28T15:55:16.458Z,13.15
2022-11-28T15:58:31.091Z,11.73
2022-11-28T16:01:27.490Z,12.75
2022-11-28T16:04:17.122Z,11.90
2022-11-28T16:07:03.719Z,11.88
2022-11-28T16:09:56.550Z,11.82
2022-11-28T16:12:42.126Z,11.63
2022-11-28T16:15:29.585Z,12.88
2022-11-28T16:18:15.913Z,13.02
2022-11-28T16:21:02.189Z,12.63
2022-11-28T16:23:47.689Z,12.43
2022-11-28T16:26:35.504Z,13.07
2022-11-28T16:29:24.654Z,12.25
2022-11-28T16:32:32.736Z,12.35
2022-11-28T16:35:40.553Z,12.93
2022-11-28T16:38:26.212Z,16.25
2022-11-28T16:41:18.005Z,16.67
2022-11-28T16:44:15.804Z,14.13
2022-11-28T16:47:02.015Z,13.40
2022-11-28T16:50:14.199Z,13.10
2022-11-28T16:53:02.762Z,12.07
2022-11-28T16:55:48.650Z,10.88
2022-11-28T16:58:34.151Z,11.77
2022-11-28T17:01:21.723Z,10.73
2022-11-28T17:04:22.568Z,10.93
2022-11-28T17:07:14.069Z,11.57
2022-11-28T17:10:01.172Z,13.68
2022-11-28T17:12:47.242Z,13.43
2022-11-28T17:15:32.579Z,14.07
2022-11-28T17:18:18.080Z,12.45
2022-11-28T17:21:03.452Z,14.27
2022-11-28T17:23:49.504Z,12.55
2022-11-28T17:26:35.187Z,12.20
2022-11-28T17:29:21.959Z,12.88
2022-11-28T17:32:11.974Z,12.43
2022-11-28T17:34:57.285Z,12.77
2022-11-28T17:37:42.837Z,12.23
2022-11-28T17:40:34.504Z,10.70
2022-11-28T17:43:21.809Z,10.43
2022-11-28T17:46:07.219Z,11.32
2022-11-28T17:48:52.647Z,10.35
2022-11-28T17:51:38.371Z,11.13
2022-11-28T17:54:26.344Z,11.45
2022-11-28T17:57:11.799Z,10.85
2022-11-28T17:59:57.967Z,11.23
2022-11-28T18:02:43.472Z,11.57
2022-11-28T18:05:29.607Z,12.93
2022-11-28T18:08:21.929Z,10.85
2022-11-28T18:11:10.506Z,11.90
2022-11-28T18:13:58.459Z,11.27
2022-11-28T18:16:44.342Z,11.48
2022-11-28T18:19:30.152Z,11.60
2022-11-28T18:22:18.711Z,11.95
2022-11-28T18:25:04.355Z,12.50
2022-11-28T18:27:53.910Z,12.18
2022-11-28T18:30:46.951Z,12.40
2022-11-28T18:33:34.466Z,16.13
2022-11-28T18:36:25.704Z,12.15
2022-11-28T18:39:15.470Z,18.80
2022-11-28T18:42:01.141Z,14.60
2022-11-28T18:44:46.572Z,12.85
2022-11-28T18:47:32.020Z,14.40
2022-11-28T18:50:17.551Z,12.18
2022-11-28T18:53:02.985Z,12.43
2022-11-28T18:55:51.189Z,11.70
2022-11-28T18:58:39.599Z,20.88
2022-11-28T19:01:31.777Z,22.48
2022-11-28T19:04:17.551Z,12.63
2022-11-28T19:07:04.083Z,12.57
2022-11-28T19:09:49.499Z,11.27
2022-11-28T19:12:36.951Z,10.80
2022-11-28T19:15:22.283Z,11.13
2022-11-28T19:18:07.818Z,13.77
2022-11-28T19:20:53.076Z,11.85
2022-11-28T19:23:39.164Z,12.63
2022-11-28T19:26:26.258Z,10.30
2022-11-28T19:29:12.834Z,10.95
2022-11-28T19:36:17.915Z,10.65
2022-11-28T19:39:04.195Z,10.57
2022-11-28T19:41:53.623Z,13.50
2022-11-28T19:44:39.023Z,9.85
2022-11-28T19:47:24.441Z,10.23
2022-11-28T19:50:10.964Z,9.30
2022-11-28T19:52:57.958Z,12.60
2022-11-28T19:55:44.643Z,12.35
2022-11-28T19:58:31.580Z,12.90
2022-11-28T20:01:19.936Z,12.60
2022-11-28T20:04:09.779Z,12.07
2022-11-28T20:06:57.342Z,11.05
2022-11-28T20:09:45.153Z,11.32
2022-11-28T20:12:31.551Z,10.50
2022-11-28T20:15:18.439Z,9.57
2022-11-28T20:18:04.367Z,9.73
2022-11-28T20:20:51.133Z,9.75
2022-11-28T20:23:45.255Z,9.13
2022-11-28T20:26:34.240Z,10.65
2022-11-28T20:29:26.791Z,10.63
2022-11-28T20:32:13.119Z,9.35
2022-11-28T20:35:01.141Z,10.95
2022-11-28T20:37:47.002Z,10.45
2022-11-28T20:40:32.196Z,9.23
2022-11-28T20:43:18.747Z,10.05
2022-11-28T20:46:07.033Z,9.80
2022-11-28T20:48:52.821Z,8.77
2022-11-28T20:51:38.856Z,10.57
2022-11-28T20:54:25.973Z,8.23
2022-11-28T20:57:21.412Z,10.25
2022-11-28T21:00:08.213Z,9.63
2022-11-28T21:02:53.528Z,9.07
2022-11-28T21:05:38.898Z,8.07
2022-11-28T21:08:24.667Z,9.75
2022-11-28T21:11:36.479Z,8.40
2022-11-28T21:14:22.295Z,9.30
2022-11-28T21:17:08.632Z,9.25
2022-11-28T21:19:53.966Z,8.95
2022-11-28T21:22:39.255Z,9.48
2022-11-28T21:25:24.696Z,8.88
2022-11-28T21:28:12.810Z,9.75
2022-11-28T21:30:58.175Z,10.05
2022-11-28T21:33:47.020Z,9.30
2022-11-28T21:36:32.276Z,10.20
2022-11-28T21:39:20.064Z,8.70
2022-11-28T21:42:05.562Z,9.85
2022-11-28T21:44:50.918Z,10.30
2022-11-28T21:47:36.412Z,9.05
2022-11-28T21:50:23.063Z,9.30
2022-11-28T21:53:08.381Z,8.90
2022-11-28T21:55:55.606Z,9.68
2022-11-28T21:58:41.403Z,9.70
2022-11-28T22:01:27.003Z,9.23
2022-11-28T22:04:12.506Z,10.43
2022-11-28T22:06:57.936Z,9.38
2022-11-28T22:09:43.361Z,9.63
2022-11-28T22:12:28.690Z,8.73
2022-11-28T22:15:14.181Z,10.48
2022-11-28T22:17:59.992Z,8.43
2022-11-28T22:20:50.208Z,10.10
2022-11-28T22:23:39.642Z,8.00
2022-11-28T22:26:25.041Z,9.40
2022-11-28T22:29:10.446Z,9.55
2022-11-28T22:31:56.326Z,10.25
2022-11-28T22:34:43.223Z,9.25
2022-11-28T22:37:28.782Z,8.50
2022-11-28T22:40:15.247Z,9.02
2022-11-28T22:43:00.571Z,8.77
2022-11-28T22:45:54.500Z,9.05
2022-11-28T22:48:40.902Z,8.27
2022-11-28T22:51:27.785Z,8.70
2022-11-28T22:54:13.601Z,8.13
2022-11-28T22:56:59.901Z,8.75
2022-11-28T22:59:45.625Z,8.65
2022-11-28T23:02:32.239Z,9.02
2022-11-28T23:05:17.419Z,8.63
2022-11-28T23:08:03.163Z,8.50
2022-11-28T23:10:48.633Z,8.18
2022-11-28T23:13:35.531Z,9.10
2022-11-28T23:16:33.981Z,9.20
2022-11-28T23:19:19.858Z,8.43
2022-11-28T23:22:05.670Z,8.80
2022-11-28T23:24:51.468Z,9.05
2022-11-28T23:27:36.905Z,9.18
2022-11-28T23:30:22.338Z,7.47
2022-11-28T23:33:07.647Z,7.78
2022-11-28T23:35:53.606Z,7.90
2022-11-28T23:38:39.111Z,8.70
2022-11-28T23:41:25.574Z,8.25
2022-11-28T23:44:12.322Z,8.80
2022-11-28T23:46:57.885Z,8.57
2022-11-28T23:49:43.156Z,8.25
2022-11-28T23:52:28.474Z,8.18
2022-11-28T23:55:13.639Z,8.60
2022-11-28T23:57:58.962Z,8.65
